createdAt,value
2017-11-20T00:02:20.641Z,18.53
2017-11-20T00:04:47.195Z,18.51
2017-11-20T00:07:13.385Z,18.48
2017-11-20T00:09:39.585Z,18.47
2017-11-20T00:12:05.933Z,18.46
2017-11-20T00:14:32.122Z,18.48
2017-11-20T00:16:58.331Z,18.45
2017-11-20T00:19:24.586Z,18.39
2017-11-20T00:21:50.778Z,18.37
2017-11-20T00:24:17.097Z,18.37
2017-11-20T00:26:43.432Z,18.34
2017-11-20T00:29:09.640Z,18.31
2017-11-20T00:31:35.852Z,18.28
2017-11-20T00:34:02.119Z,18.23
2017-11-20T00:36:28.394Z,18.24
2017-11-20T00:38:54.597Z,18.26
2017-11-20T00:41:20.851Z,18.22
2017-11-20T00:43:47.042Z,18.18
2017-11-20T00:46:13.255Z,18.15
2017-11-20T00:48:39.617Z,18.12
2017-11-20T00:51:05.803Z,18.07
2017-11-20T00:53:31.993Z,18.06
2017-11-20T00:55:58.242Z,18.03
2017-11-20T00:58:24.656Z,17.99
2017-11-20T01:00:50.845Z,17.95
2017-11-20T01:03:17.087Z,17.96
2017-11-20T01:05:43.366Z,17.98
2017-11-20T01:08:09.586Z,18.00
2017-11-20T01:10:35.832Z,17.99
2017-11-20T01:13:02.028Z,17.99
2017-11-20T01:15:28.226Z,17.99
2017-11-20T01:17:54.444Z,18.00
2017-11-20T01:20:20.713Z,18.02
2017-11-20T01:22:46.894Z,17.99
2017-11-20T01:25:13.156Z,17.98
2017-11-20T01:27:39.393Z,18.01
2017-11-20T01:30:05.594Z,18.03
2017-11-20T01:32:31.849Z,18.00
2017-11-20T01:34:58.098Z,18.00
2017-11-20T01:37:24.272Z,17.99
2017-11-20T01:39:50.702Z,17.99
2017-11-20T01:42:16.956Z,17.97
2017-11-20T01:44:43.430Z,17.97
2017-11-20T01:47:09.643Z,17.96
2017-11-20T01:49:35.980Z,17.96
2017-11-20T01:52:02.311Z,17.97
2017-11-20T01:54:28.506Z,17.94
2017-11-20T01:56:54.984Z,17.94
2017-11-20T01:59:21.416Z,17.95
2017-11-20T02:01:47.698Z,17.94
2017-11-20T02:04:13.953Z,18.01
2017-11-20T02:06:40.154Z,17.94
2017-11-20T02:09:06.345Z,17.88
2017-11-20T02:11:32.698Z,17.86
2017-11-20T02:13:58.957Z,17.85
2017-11-20T02:16:25.149Z,17.84
2017-11-20T02:18:51.628Z,17.91
2017-11-20T02:21:18.078Z,17.98
2017-11-20T02:23:44.286Z,18.02
2017-11-20T02:26:10.566Z,18.00
2017-11-20T02:28:36.798Z,17.94
2017-11-20T02:31:03.028Z,17.93
2017-11-20T02:33:29.297Z,17.95
2017-11-20T02:35:55.534Z,17.96
2017-11-20T02:38:21.750Z,17.93
2017-11-20T02:40:48.109Z,17.92
2017-11-20T02:43:14.318Z,17.92
2017-11-20T02:45:40.530Z,17.88
2017-11-20T02:48:06.803Z,17.88
2017-11-20T02:50:33.396Z,17.88
2017-11-20T02:52:59.610Z,17.88
2017-11-20T02:55:25.974Z,17.87
2017-11-20T02:57:52.184Z,17.87
2017-11-20T03:00:18.630Z,17.87
2017-11-20T03:02:44.881Z,17.83
2017-11-20T03:05:11.080Z,17.80
2017-11-20T03:07:37.306Z,17.82
2017-11-20T03:10:03.781Z,17.81
2017-11-20T03:12:30.057Z,17.82
2017-11-20T03:14:56.354Z,17.82
2017-11-20T03:17:22.605Z,17.80
2017-11-20T03:19:48.786Z,17.80
2017-11-20T03:22:14.979Z,17.80
2017-11-20T03:24:41.321Z,17.79
2017-11-20T03:27:07.534Z,17.78
2017-11-20T03:29:33.729Z,17.78
2017-11-20T03:32:00.053Z,17.79
2017-11-20T03:34:26.255Z,17.77
2017-11-20T03:36:52.630Z,17.76
2017-11-20T03:39:18.845Z,17.79
2017-11-20T03:41:45.066Z,17.79
2017-11-20T03:44:11.566Z,17.79
2017-11-20T03:46:37.824Z,17.79
2017-11-20T03:49:04.022Z,17.79
2017-11-20T03:51:30.231Z,17.79
2017-11-20T03:53:56.558Z,17.80
2017-11-20T03:56:22.756Z,17.78
2017-11-20T03:58:48.942Z,17.76
2017-11-20T04:01:15.173Z,17.75
2017-11-20T04:03:41.358Z,17.75
2017-11-20T04:06:07.538Z,17.73
2017-11-20T04:08:33.777Z,17.73
2017-11-20T04:10:59.998Z,17.82
2017-11-20T04:13:26.171Z,17.88
2017-11-20T04:15:52.496Z,17.88
2017-11-20T04:18:18.690Z,17.79
2017-11-20T04:20:44.966Z,17.76
2017-11-20T04:23:11.295Z,17.73
2017-11-20T04:25:37.547Z,17.71
2017-11-20T04:28:03.976Z,17.70
2017-11-20T04:30:30.201Z,17.70
2017-11-20T04:32:56.382Z,17.68
2017-11-20T04:35:22.564Z,17.67
2017-11-20T04:37:48.923Z,17.67
2017-11-20T04:40:15.110Z,17.65
2017-11-20T04:42:41.301Z,17.64
2017-11-20T04:45:07.774Z,17.64
2017-11-20T04:47:33.974Z,17.65
2017-11-20T04:50:00.178Z,17.68
2017-11-20T04:52:26.497Z,17.75
2017-11-20T04:54:52.682Z,17.77
2017-11-20T04:57:18.880Z,17.81
2017-11-20T04:59:45.207Z,17.79
2017-11-20T05:02:11.492Z,17.77
2017-11-20T05:04:37.683Z,17.79
2017-11-20T05:07:03.958Z,17.79
2017-11-20T05:09:30.426Z,17.69
2017-11-20T05:11:56.621Z,17.63
2017-11-20T05:14:22.933Z,17.59
2017-11-20T05:16:49.155Z,17.58
2017-11-20T05:19:15.594Z,17.60
2017-11-20T05:21:41.922Z,17.61
2017-11-20T05:24:08.141Z,17.66
2017-11-20T05:26:34.352Z,17.70
2017-11-20T05:29:00.609Z,17.74
2017-11-20T05:31:27.029Z,17.74
2017-11-20T05:33:53.484Z,17.66
2017-11-20T05:36:19.732Z,17.66
2017-11-20T05:38:45.922Z,17.68
2017-11-20T05:41:12.117Z,17.69
2017-11-20T05:43:38.452Z,17.70
2017-11-20T05:46:04.650Z,17.80
2017-11-20T05:48:30.841Z,17.84
2017-11-20T05:50:57.178Z,17.82
2017-11-20T05:53:23.510Z,17.83
2017-11-20T05:55:49.713Z,17.81
2017-11-20T05:58:16.137Z,17.82
2017-11-20T06:00:42.359Z,17.81
2017-11-20T06:03:08.550Z,17.82
2017-11-20T06:05:34.878Z,17.81
2017-11-20T06:08:01.294Z,17.80
2017-11-20T06:10:27.508Z,17.82
2017-11-20T06:12:53.841Z,17.82
2017-11-20T06:15:20.070Z,17.76
2017-11-20T06:17:46.302Z,17.74
2017-11-20T06:20:12.574Z,17.74
2017-11-20T06:22:39.010Z,17.77
2017-11-20T06:25:05.196Z,17.78
2017-11-20T06:27:31.517Z,17.75
2017-11-20T06:29:57.693Z,17.73
2017-11-20T06:32:23.865Z,17.71
2017-11-20T06:34:50.096Z,17.69
2017-11-20T06:37:17.092Z,17.70
2017-11-20T06:39:43.438Z,17.71
2017-11-20T06:42:10.104Z,17.67
2017-11-20T06:44:36.359Z,17.66
2017-11-20T06:47:02.565Z,17.68
2017-11-20T06:49:28.885Z,17.76
2017-11-20T06:51:55.112Z,17.82
2017-11-20T06:54:21.317Z,17.86
2017-11-20T06:56:47.646Z,18.02
2017-11-20T06:59:13.839Z,18.21
2017-11-20T07:01:40.289Z,18.37
2017-11-20T07:04:06.531Z,18.52
2017-11-20T07:06:32.730Z,18.63
2017-11-20T07:08:58.939Z,18.74
2017-11-20T07:11:25.307Z,18.82
2017-11-20T07:13:51.490Z,18.94
2017-11-20T07:16:17.691Z,19.01
2017-11-20T07:18:43.979Z,19.10
2017-11-20T07:21:10.174Z,19.13
2017-11-20T07:23:36.393Z,19.15
2017-11-20T07:26:15.005Z,19.17
2017-11-20T07:28:53.242Z,19.20
2017-11-20T07:31:28.296Z,19.22
2017-11-20T07:34:06.612Z,19.23
2017-11-20T07:36:45.212Z,19.22
2017-11-20T07:39:11.524Z,19.24
2017-11-20T07:41:49.809Z,19.26
2017-11-20T07:44:16.020Z,19.23
2017-11-20T07:46:42.299Z,19.25
2017-11-20T07:49:08.541Z,19.23
2017-11-20T07:51:34.738Z,19.22
2017-11-20T07:54:00.942Z,19.22
2017-11-20T07:56:27.201Z,19.24
2017-11-20T07:58:53.395Z,19.24
2017-11-20T08:01:19.591Z,19.22
2017-11-20T08:03:46.117Z,19.24
2017-11-20T08:06:12.451Z,19.24
2017-11-20T08:08:38.673Z,19.22
2017-11-20T08:11:05.030Z,19.18
2017-11-20T08:13:31.238Z,19.18
2017-11-20T08:15:57.431Z,19.17
2017-11-20T08:18:23.923Z,19.17
2017-11-20T08:20:50.118Z,19.21
2017-11-20T08:23:16.561Z,19.26
2017-11-20T08:25:42.897Z,19.29
2017-11-20T08:28:09.131Z,19.30
2017-11-20T08:30:35.355Z,19.29
2017-11-20T08:33:01.596Z,19.33
2017-11-20T08:35:27.797Z,19.38
2017-11-20T08:37:54.005Z,19.41
2017-11-20T08:40:21.408Z,19.41
2017-11-20T08:42:48.246Z,19.43
2017-11-20T08:45:14.483Z,19.42
2017-11-20T08:47:40.732Z,19.44
2017-11-20T08:50:06.948Z,19.46
2017-11-20T08:52:33.459Z,19.44
2017-11-20T08:54:59.739Z,19.38
2017-11-20T08:57:25.956Z,19.36
2017-11-20T08:59:52.170Z,19.34
2017-11-20T09:02:18.490Z,19.34
2017-11-20T09:04:44.702Z,19.33
2017-11-20T09:07:10.923Z,19.35
2017-11-20T09:09:37.335Z,19.37
2017-11-20T09:12:03.538Z,19.38
2017-11-20T09:14:29.844Z,19.38
2017-11-20T09:16:56.174Z,19.36
2017-11-20T09:19:22.531Z,19.37
2017-11-20T09:21:48.749Z,19.37
2017-11-20T09:24:15.023Z,19.41
2017-11-20T09:26:41.370Z,19.44
2017-11-20T09:29:07.660Z,19.47
2017-11-20T09:31:34.062Z,19.47
2017-11-20T09:34:00.297Z,19.44
2017-11-20T09:36:26.500Z,19.44
2017-11-20T09:38:52.757Z,19.44
2017-11-20T09:41:18.962Z,19.43
2017-11-20T09:43:45.168Z,19.42
2017-11-20T09:46:11.443Z,19.43
2017-11-20T09:48:37.896Z,19.42
2017-11-20T09:51:04.234Z,19.40
2017-11-20T09:53:30.574Z,19.39
2017-11-20T09:55:56.786Z,19.38
2017-11-20T09:58:22.989Z,19.38
2017-11-20T10:00:49.338Z,19.39
2017-11-20T10:03:15.791Z,19.37
2017-11-20T10:05:42.001Z,19.37
2017-11-20T10:08:08.379Z,19.36
2017-11-20T10:10:34.598Z,19.39
2017-11-20T10:13:01.004Z,19.41
2017-11-20T10:15:27.431Z,19.44
2017-11-20T10:17:53.654Z,19.42
2017-11-20T10:20:19.949Z,19.41
2017-11-20T10:22:46.207Z,19.42
2017-11-20T10:25:12.509Z,19.44
2017-11-20T10:27:38.730Z,19.44
2017-11-20T10:30:04.942Z,19.46
2017-11-20T10:32:31.233Z,19.46
2017-11-20T10:34:57.490Z,19.46
2017-11-20T10:37:23.702Z,19.44
2017-11-20T10:39:50.018Z,19.41
2017-11-20T10:42:22.642Z,19.41
2017-11-20T10:44:48.883Z,19.44
2017-11-20T10:47:15.148Z,19.48
2017-11-20T10:49:41.363Z,19.50
2017-11-20T10:52:07.588Z,19.51
2017-11-20T10:54:33.912Z,19.52
2017-11-20T10:57:00.103Z,19.53
2017-11-20T10:59:26.344Z,19.57
2017-11-20T11:01:52.654Z,19.58
2017-11-20T11:04:18.863Z,19.58
2017-11-20T11:06:45.091Z,19.60
2017-11-20T11:09:11.350Z,19.60
2017-11-20T11:11:37.800Z,19.62
2017-11-20T11:14:04.005Z,19.63
2017-11-20T11:16:30.640Z,19.66
2017-11-20T11:18:56.834Z,19.68
2017-11-20T11:21:23.052Z,19.71
2017-11-20T11:23:50.247Z,19.73
2017-11-20T11:26:16.934Z,19.73
2017-11-20T11:28:43.524Z,19.72
2017-11-20T11:31:09.966Z,19.68
2017-11-20T11:33:36.328Z,19.65
2017-11-20T11:36:04.009Z,19.62
2017-11-20T11:38:30.496Z,19.59
2017-11-20T11:40:56.957Z,19.55
2017-11-20T11:43:23.149Z,19.53
2017-11-20T11:45:49.422Z,19.50
2017-11-20T11:48:15.625Z,19.45
2017-11-20T11:50:41.847Z,19.48
2017-11-20T11:53:08.197Z,19.48
2017-11-20T11:55:34.392Z,19.48
2017-11-20T11:58:06.524Z,19.51
2017-11-20T12:00:32.958Z,19.50
2017-11-20T12:02:59.169Z,19.52
2017-11-20T12:05:25.477Z,19.51
2017-11-20T12:07:51.742Z,19.49
2017-11-20T12:10:17.966Z,19.48
2017-11-20T12:12:44.173Z,19.49
2017-11-20T12:15:10.547Z,19.51
2017-11-20T12:17:36.742Z,19.50
2017-11-20T12:20:02.996Z,19.54
2017-11-20T12:22:29.377Z,19.59
2017-11-20T12:24:55.673Z,19.60
2017-11-20T12:27:21.891Z,19.61
2017-11-20T12:29:48.390Z,19.62
2017-11-20T12:32:14.871Z,19.63
2017-11-20T12:34:41.095Z,19.61
2017-11-20T12:37:07.396Z,19.55
2017-11-20T12:39:33.862Z,19.54
2017-11-20T12:42:00.067Z,19.53
2017-11-20T12:44:26.391Z,19.49
2017-11-20T12:46:52.649Z,19.46
2017-11-20T12:49:18.837Z,19.49
2017-11-20T12:51:45.093Z,19.51
2017-11-20T12:54:11.301Z,19.49
2017-11-20T12:56:37.509Z,19.47
2017-11-20T12:59:03.759Z,19.45
2017-11-20T13:01:29.968Z,19.44
2017-11-20T13:03:56.195Z,19.45
2017-11-20T13:06:22.524Z,19.43
2017-11-20T13:08:48.733Z,19.44
2017-11-20T13:11:14.944Z,19.45
2017-11-20T13:13:41.230Z,19.44
2017-11-20T13:16:07.432Z,19.44
2017-11-20T13:21:24.690Z,19.43
2017-11-20T13:23:50.961Z,19.44
2017-11-20T13:26:17.363Z,19.44
2017-11-20T13:28:43.791Z,19.46
2017-11-20T13:31:10.019Z,19.47
2017-11-20T13:33:36.346Z,19.46
2017-11-20T13:36:02.615Z,19.46
2017-11-20T13:38:28.823Z,19.46
2017-11-20T13:40:55.030Z,19.43
2017-11-20T13:43:21.490Z,19.40
2017-11-20T13:45:47.721Z,19.41
2017-11-20T13:48:14.115Z,19.42
2017-11-20T13:50:40.433Z,19.39
2017-11-20T13:53:06.732Z,19.43
2017-11-20T13:55:32.978Z,19.43
2017-11-20T13:57:59.482Z,19.45
2017-11-20T14:00:25.677Z,19.44
2017-11-20T14:02:51.982Z,19.42
2017-11-20T14:05:18.550Z,19.43
2017-11-20T14:07:44.794Z,19.40
2017-11-20T14:10:11.051Z,19.38
2017-11-20T14:12:37.633Z,19.41
2017-11-20T14:15:03.923Z,19.44
2017-11-20T14:17:30.203Z,19.48
2017-11-20T14:19:56.516Z,19.51
2017-11-20T14:22:22.989Z,19.49
2017-11-20T14:24:49.221Z,19.49
2017-11-20T14:27:15.753Z,19.51
2017-11-20T14:29:41.965Z,19.54
2017-11-20T14:32:08.332Z,19.52
2017-11-20T14:34:34.718Z,19.50
2017-11-20T14:37:00.959Z,19.47
2017-11-20T14:39:27.242Z,19.45
2017-11-20T14:41:53.535Z,19.44
2017-11-20T14:44:20.015Z,19.45
2017-11-20T14:46:46.314Z,19.41
2017-11-20T14:49:12.754Z,19.42
2017-11-20T14:54:39.926Z,19.39
2017-11-20T14:57:06.247Z,19.37
2017-11-20T14:59:32.621Z,19.36
2017-11-20T15:01:59.981Z,19.37
2017-11-20T15:04:26.365Z,19.37
2017-11-20T15:09:24.558Z,19.37
2017-11-20T15:11:51.073Z,19.37
2017-11-20T15:14:17.446Z,19.38
2017-11-20T15:16:44.021Z,19.38
2017-11-20T15:19:10.294Z,19.37
2017-11-20T15:21:36.560Z,19.37
2017-11-20T15:24:02.816Z,19.37
2017-11-20T15:26:29.363Z,19.34
2017-11-20T15:28:55.898Z,19.34
2017-11-20T15:31:22.145Z,19.33
2017-11-20T15:33:48.515Z,19.31
2017-11-20T15:36:15.050Z,19.31
2017-11-20T15:38:41.298Z,19.30
2017-11-20T15:41:07.527Z,19.31
2017-11-20T15:43:33.784Z,19.33
2017-11-20T15:46:00.059Z,19.33
2017-11-20T15:48:26.265Z,19.33
2017-11-20T15:50:52.614Z,19.35
2017-11-20T15:53:18.807Z,19.37
2017-11-20T15:55:45.023Z,19.38
2017-11-20T15:58:11.558Z,19.36
2017-11-20T16:00:37.812Z,19.36
2017-11-20T16:03:04.031Z,19.41
2017-11-20T16:05:30.369Z,19.40
2017-11-20T16:07:56.561Z,19.37
2017-11-20T16:10:22.999Z,19.35
2017-11-20T16:12:49.520Z,19.35
2017-11-20T16:15:15.733Z,19.34
2017-11-20T16:17:41.965Z,19.30
2017-11-20T16:20:08.544Z,19.32
2017-11-20T16:22:34.763Z,19.32
2017-11-20T16:25:00.960Z,19.32
2017-11-20T16:27:27.320Z,19.30
2017-11-20T16:29:53.510Z,19.32
2017-11-20T16:32:19.764Z,19.33
2017-11-20T16:34:46.026Z,19.32
2017-11-20T16:37:12.198Z,19.31
2017-11-20T16:39:38.621Z,19.33
2017-11-20T16:42:05.114Z,19.31
2017-11-20T16:44:31.306Z,19.30
2017-11-20T16:46:57.512Z,19.29
2017-11-20T16:49:23.783Z,19.30
2017-11-20T16:51:50.065Z,19.28
2017-11-20T16:54:16.245Z,19.27
2017-11-20T16:56:42.609Z,19.27
2017-11-20T16:59:08.895Z,19.32
2017-11-20T17:01:47.422Z,19.39
2017-11-20T17:04:13.849Z,19.40
2017-11-20T17:06:40.033Z,19.39
2017-11-20T17:09:06.711Z,19.38
2017-11-20T17:11:32.927Z,19.38
2017-11-20T17:13:59.134Z,19.39
2017-11-20T17:16:25.441Z,19.39
2017-11-20T17:18:51.633Z,19.37
2017-11-20T17:21:17.857Z,19.37
2017-11-20T17:23:44.394Z,19.40
2017-11-20T17:26:10.855Z,19.40
2017-11-20T17:28:37.386Z,19.37
2017-11-20T17:31:03.715Z,19.29
2017-11-20T17:33:29.931Z,19.32
2017-11-20T17:35:56.111Z,19.38
2017-11-20T17:38:22.385Z,19.36
2017-11-20T17:40:48.607Z,19.33
2017-11-20T17:43:15.046Z,19.38
2017-11-20T17:45:41.317Z,19.37
2017-11-20T17:48:07.755Z,19.28
2017-11-20T17:50:33.975Z,19.30
2017-11-20T17:53:00.262Z,19.32
2017-11-20T17:55:26.487Z,19.34
2017-11-20T17:57:52.670Z,19.40
2017-11-20T18:00:19.001Z,19.36
2017-11-20T18:02:45.210Z,19.35
2017-11-20T18:05:11.642Z,19.40
2017-11-20T18:07:37.896Z,19.42
2017-11-20T18:10:04.100Z,19.44
2017-11-20T18:12:30.288Z,19.45
2017-11-20T18:14:56.634Z,19.46
2017-11-20T18:17:22.881Z,19.45
2017-11-20T18:19:49.090Z,19.41
2017-11-20T18:22:15.593Z,19.40
2017-11-20T18:24:42.014Z,19.39
2017-11-20T18:27:08.446Z,19.37
2017-11-20T18:29:34.963Z,19.36
2017-11-20T18:32:01.173Z,19.35
2017-11-20T18:34:27.371Z,19.34
2017-11-20T18:36:53.656Z,19.32
2017-11-20T18:39:20.088Z,19.32
2017-11-20T18:41:46.330Z,19.33
2017-11-20T18:44:12.602Z,19.34
2017-11-20T18:46:38.851Z,19.33
2017-11-20T18:49:05.111Z,19.38
2017-11-20T18:51:31.469Z,19.36
2017-11-20T18:53:58.002Z,19.33
2017-11-20T18:56:24.258Z,19.35
2017-11-20T18:58:50.499Z,19.37
2017-11-20T19:01:28.854Z,19.38
2017-11-20T19:07:10.196Z,19.39
2017-11-20T19:09:36.523Z,19.37
2017-11-20T19:12:02.752Z,19.35
2017-11-20T19:14:28.961Z,19.34
2017-11-20T19:16:55.227Z,19.39
2017-11-20T19:19:21.427Z,19.43
2017-11-20T19:21:47.621Z,19.43
2017-11-20T19:24:13.872Z,19.47
2017-11-20T19:26:40.066Z,19.51
2017-11-20T19:29:06.496Z,19.52
2017-11-20T19:31:32.987Z,19.51
2017-11-20T19:33:59.183Z,19.44
2017-11-20T19:36:25.393Z,19.39
2017-11-20T19:38:51.734Z,19.41
2017-11-20T19:41:17.983Z,19.45
2017-11-20T19:43:44.441Z,19.50
2017-11-20T19:46:10.688Z,19.46
2017-11-20T19:48:36.885Z,19.41
2017-11-20T19:51:03.172Z,19.42
2017-11-20T19:53:29.428Z,19.40
2017-11-20T19:55:55.609Z,19.42
2017-11-20T19:58:21.806Z,19.43
2017-11-20T20:00:48.052Z,19.40
2017-11-20T20:03:14.241Z,19.40
2017-11-20T20:05:40.427Z,19.45
2017-11-20T20:08:06.679Z,19.49
2017-11-20T20:10:32.889Z,19.50
2017-11-20T20:12:59.099Z,19.46
2017-11-20T20:18:26.473Z,19.53
2017-11-20T20:20:52.954Z,19.56
2017-11-20T20:23:19.394Z,19.57
2017-11-20T20:25:45.597Z,19.59
2017-11-20T20:28:11.938Z,19.60
2017-11-20T20:30:38.146Z,19.58
2017-11-20T20:33:04.619Z,19.51
2017-11-20T20:35:30.891Z,19.47
2017-11-20T20:37:57.116Z,19.45
2017-11-20T20:40:23.426Z,19.44
2017-11-20T20:42:49.703Z,19.43
2017-11-20T20:45:15.997Z,19.43
2017-11-20T20:47:42.208Z,19.41
2017-11-20T20:50:08.540Z,19.42
2017-11-20T20:52:34.972Z,19.46
2017-11-20T20:55:01.157Z,19.51
2017-11-20T20:57:27.484Z,19.53
2017-11-20T20:59:53.817Z,19.55
2017-11-20T21:02:20.265Z,19.58
2017-11-20T21:04:46.610Z,19.54
2017-11-20T21:07:12.807Z,19.58
2017-11-20T21:09:45.103Z,19.58
2017-11-20T21:12:17.784Z,19.59
2017-11-20T21:14:43.980Z,19.63
2017-11-20T21:17:10.174Z,19.61
2017-11-20T21:19:36.672Z,19.57
2017-11-20T21:22:02.861Z,19.56
2017-11-20T21:24:29.096Z,19.59
2017-11-20T21:26:55.419Z,19.60
2017-11-20T21:29:21.611Z,19.57
2017-11-20T21:31:47.831Z,19.59
2017-11-20T21:34:14.087Z,19.58
2017-11-20T21:36:40.300Z,19.57
2017-11-20T21:39:06.505Z,19.53
2017-11-20T21:41:32.979Z,19.49
2017-11-20T21:43:59.177Z,19.50
2017-11-20T21:46:25.377Z,19.54
2017-11-20T21:48:51.722Z,19.54
2017-11-20T21:51:17.944Z,19.52
2017-11-20T21:53:44.113Z,19.52
2017-11-20T21:56:10.417Z,19.50
2017-11-20T21:58:36.600Z,19.51
2017-11-20T22:01:02.812Z,19.51
2017-11-20T22:03:29.045Z,19.52
2017-11-20T22:05:55.228Z,19.52
2017-11-20T22:08:21.419Z,19.54
2017-11-20T22:10:47.695Z,19.55
2017-11-20T22:13:27.069Z,19.55
2017-11-20T22:15:53.400Z,19.58
2017-11-20T22:18:19.608Z,19.56
2017-11-20T22:20:45.834Z,19.52
2017-11-20T22:23:12.189Z,19.52
2017-11-20T22:25:38.401Z,19.52
2017-11-20T22:28:04.588Z,19.48
2017-11-20T22:30:30.972Z,19.49
2017-11-20T22:32:57.425Z,19.56
2017-11-20T22:35:23.639Z,19.56
2017-11-20T22:37:50.122Z,19.59
2017-11-20T22:40:16.313Z,19.55
2017-11-20T22:42:42.528Z,19.55
2017-11-20T22:45:08.841Z,19.56
2017-11-20T22:47:35.297Z,19.60
2017-11-20T22:50:01.498Z,19.60
2017-11-20T22:52:27.847Z,19.59
2017-11-20T22:54:54.049Z,19.58
2017-11-20T22:57:20.234Z,19.57
2017-11-20T22:59:46.736Z,19.57
2017-11-20T23:02:12.953Z,19.55
2017-11-20T23:04:39.167Z,19.56
2017-11-20T23:07:05.522Z,19.58
2017-11-20T23:09:31.733Z,19.58
2017-11-20T23:11:57.986Z,19.61
2017-11-20T23:14:24.243Z,19.62
2017-11-20T23:16:50.442Z,19.60
2017-11-20T23:19:16.670Z,19.60
2017-11-20T23:21:42.993Z,19.58
2017-11-20T23:24:09.189Z,19.57
2017-11-20T23:26:35.389Z,19.57
2017-11-20T23:29:01.881Z,19.60
2017-11-20T23:31:28.253Z,19.62
2017-11-20T23:33:54.680Z,19.56
2017-11-20T23:36:21.020Z,19.57
2017-11-20T23:38:47.222Z,19.59
2017-11-20T23:41:13.435Z,19.59
2017-11-20T23:43:39.776Z,19.60
2017-11-20T23:46:05.983Z,19.60
2017-11-20T23:48:32.175Z,19.55
2017-11-20T23:50:58.449Z,19.54
2017-11-20T23:53:33.714Z,19.52
2017-11-20T23:55:59.971Z,19.56
2017-11-20T23:58:26.180Z,19.56
